createdAt,value
2019-03-11T08:19:14.869Z,24.80
2019-03-11T08:21:45.315Z,25.40
2019-03-11T08:24:16.785Z,26.00
2019-03-11T08:26:47.338Z,27.40
2019-03-11T08:29:17.832Z,28.10
2019-03-11T08:31:48.318Z,27.90
2019-03-11T08:34:18.778Z,26.60
2019-03-11T08:36:49.396Z,23.90
2019-03-11T08:39:19.859Z,22.20
2019-03-11T08:41:50.318Z,20.10
2019-03-11T08:44:20.962Z,18.30
2019-03-11T08:46:51.421Z,16.80
2019-03-11T08:49:21.971Z,16.10
2019-03-11T08:51:52.497Z,15.50
2019-03-11T08:54:23.001Z,14.10
2019-03-11T08:56:53.419Z,13.90
2019-03-11T08:59:23.973Z,13.90
2019-03-11T09:01:54.425Z,13.80
2019-03-11T09:04:25.192Z,14.30
2019-03-11T09:06:55.643Z,14.50
2019-03-11T09:09:26.765Z,14.00
2019-03-11T09:11:57.342Z,13.30
2019-03-11T09:14:27.805Z,12.40
2019-03-11T09:16:58.254Z,11.70
2019-03-11T09:19:28.704Z,10.90
2019-03-11T09:21:59.115Z,10.40
2019-03-11T09:24:29.517Z,10.20
2019-03-11T09:26:59.954Z,10.00
2019-03-11T09:29:30.396Z,10.40
2019-03-11T09:32:00.858Z,12.20
2019-03-11T09:34:31.297Z,15.50
2019-03-11T09:37:01.742Z,18.90
2019-03-11T09:39:32.179Z,21.30
2019-03-11T09:42:02.664Z,23.00
2019-03-11T09:44:33.288Z,24.30
2019-03-11T09:47:03.745Z,26.30
2019-03-11T09:49:34.176Z,28.40
2019-03-11T09:52:04.655Z,29.60
2019-03-11T09:54:44.680Z,30.30
2019-03-11T09:57:15.141Z,30.50
2019-03-11T09:59:45.599Z,29.90
2019-03-11T10:02:16.034Z,29.80
2019-03-11T10:04:46.652Z,30.40
2019-03-11T10:07:17.091Z,27.50
2019-03-11T10:09:47.541Z,24.40
2019-03-11T10:12:18.004Z,22.40
2019-03-11T10:14:48.459Z,22.00
2019-03-11T10:17:18.921Z,22.60
2019-03-11T10:19:49.367Z,22.90
2019-03-11T10:22:19.837Z,22.50
2019-03-11T10:24:50.355Z,21.60
2019-03-11T10:27:20.812Z,20.70
2019-03-11T10:29:51.270Z,19.40
2019-03-11T10:32:22.025Z,18.70
2019-03-11T10:34:52.446Z,19.50
2019-03-11T10:37:22.930Z,22.00
2019-03-11T10:39:53.342Z,24.90
2019-03-11T10:42:23.893Z,26.90
2019-03-11T10:44:54.336Z,28.20
2019-03-11T10:47:24.770Z,28.20
2019-03-11T10:49:55.215Z,28.90
2019-03-11T10:52:25.704Z,29.80
2019-03-11T10:54:56.154Z,30.00
2019-03-11T10:57:26.730Z,30.20
2019-03-11T10:59:57.197Z,30.40
2019-03-11T11:02:27.685Z,28.60
2019-03-11T11:04:58.176Z,27.00
2019-03-11T11:07:30.474Z,25.00
2019-03-11T11:10:00.958Z,24.20
2019-03-11T11:12:31.522Z,24.70
2019-03-11T11:15:01.963Z,25.30
2019-03-11T11:17:32.769Z,26.50
2019-03-11T11:20:04.065Z,28.20
2019-03-11T11:22:34.849Z,28.10
2019-03-11T11:25:05.551Z,28.00
2019-03-11T11:27:36.653Z,28.70
2019-03-11T11:30:11.307Z,29.50
2019-03-11T11:32:41.722Z,29.20
2019-03-11T11:35:12.319Z,28.50
2019-03-11T11:37:42.754Z,26.60
2019-03-11T11:40:16.592Z,24.10
2019-03-11T11:42:47.070Z,22.00
2019-03-11T11:45:19.154Z,20.20
2019-03-11T11:47:49.785Z,18.30
2019-03-11T11:50:21.280Z,17.40
2019-03-11T11:52:52.478Z,17.70
2019-03-11T11:55:23.360Z,18.50
2019-03-11T11:57:54.029Z,18.90
2019-03-11T12:00:27.837Z,18.40
2019-03-11T12:02:58.243Z,18.10
2019-03-11T12:05:28.697Z,17.70
2019-03-11T12:07:59.217Z,17.20
2019-03-11T12:10:29.646Z,16.30
2019-03-11T12:13:00.124Z,16.00
2019-03-11T12:15:30.569Z,15.20
2019-03-11T12:18:01.086Z,14.60
2019-03-11T12:20:31.656Z,14.00
2019-03-11T12:23:02.168Z,13.40
2019-03-11T12:25:32.644Z,13.10
2019-03-11T12:28:03.092Z,12.60
2019-03-11T12:30:33.775Z,12.60
2019-03-11T12:33:04.344Z,12.50
2019-03-11T12:35:34.857Z,12.40
2019-03-11T12:38:05.689Z,12.60
2019-03-11T12:40:36.348Z,12.50
2019-03-11T12:43:06.804Z,12.30
2019-03-11T12:45:37.445Z,12.40
2019-03-11T12:48:07.925Z,12.50
2019-03-11T12:50:38.424Z,12.20
2019-03-11T12:53:08.843Z,11.60
2019-03-11T12:55:39.328Z,11.70
2019-03-11T12:58:09.806Z,11.90
2019-03-11T13:00:40.598Z,12.10
2019-03-11T13:03:11.222Z,12.30
2019-03-11T13:05:41.664Z,12.40
2019-03-11T13:08:12.149Z,12.70
2019-03-11T13:10:42.674Z,12.80
2019-03-11T13:13:13.177Z,13.00
2019-03-11T13:15:43.579Z,13.00
2019-03-11T13:18:47.872Z,12.90
2019-03-11T13:21:41.597Z,12.30
2019-03-11T13:24:12.262Z,12.00
2019-03-11T13:26:42.720Z,11.80
2019-03-11T13:29:13.151Z,11.70
2019-03-11T13:31:43.677Z,11.40
2019-03-11T13:34:14.149Z,11.20
2019-03-11T13:36:44.775Z,11.30
2019-03-11T13:39:15.244Z,11.10
2019-03-11T13:41:45.695Z,11.10
2019-03-11T13:44:16.175Z,10.90
2019-03-11T13:46:46.679Z,10.90
2019-03-11T13:49:17.187Z,11.00
2019-03-11T13:51:47.793Z,11.00
2019-03-11T13:54:18.263Z,11.10
2019-03-11T13:56:48.707Z,11.20
2019-03-11T13:59:19.186Z,11.20
2019-03-11T14:01:49.712Z,11.10
2019-03-11T14:04:20.388Z,11.10
2019-03-11T14:06:50.864Z,11.00
2019-03-11T14:09:21.539Z,11.00
2019-03-11T14:11:52.040Z,11.20
2019-03-11T14:14:22.579Z,11.00
2019-03-11T14:16:53.218Z,10.90
2019-03-11T14:19:23.727Z,10.90
2019-03-11T14:21:55.367Z,10.90
2019-03-11T14:24:26.041Z,11.00
2019-03-11T14:26:57.025Z,10.80
2019-03-11T14:29:27.659Z,10.60
2019-03-11T14:32:01.339Z,10.50
2019-03-11T14:34:31.863Z,10.30
2019-03-11T14:37:02.579Z,10.30
2019-03-11T14:39:33.290Z,10.30
2019-03-11T14:42:04.155Z,10.10
2019-03-11T14:44:34.659Z,10.10
2019-03-11T14:47:05.305Z,10.10
2019-03-11T14:49:35.983Z,10.20
2019-03-11T14:52:06.493Z,10.20
2019-03-11T14:54:37.729Z,10.20
2019-03-11T14:57:07.829Z,10.10
2019-03-11T14:59:38.554Z,10.00
2019-03-11T15:02:09.031Z,10.10
2019-03-11T15:04:39.579Z,10.00
2019-03-11T15:07:10.245Z,10.10
2019-03-11T15:09:51.075Z,10.10
2019-03-11T15:12:12.997Z,10.20
2019-03-11T15:14:43.653Z,10.20
2019-03-11T15:17:14.209Z,10.20
2019-03-11T15:19:44.668Z,10.20
2019-03-11T15:22:15.177Z,10.10
2019-03-11T15:24:45.619Z,9.90
2019-03-11T15:27:16.378Z,9.80
2019-03-11T15:29:47.789Z,9.80
2019-03-11T15:32:18.248Z,9.60
2019-03-11T15:34:48.758Z,9.60
2019-03-11T15:37:19.200Z,9.50
2019-03-11T15:39:49.876Z,9.30
2019-03-11T15:42:20.337Z,9.30
2019-03-11T15:44:50.810Z,9.20
2019-03-11T15:47:21.283Z,9.20
2019-03-11T15:49:51.722Z,9.20
2019-03-11T15:52:22.158Z,9.20
2019-03-11T15:54:52.621Z,9.10
2019-03-11T15:57:23.176Z,9.00
2019-03-11T15:59:53.781Z,8.90
2019-03-11T16:02:24.428Z,8.80
2019-03-11T16:04:55.075Z,8.70
2019-03-11T16:07:25.533Z,8.70
2019-03-11T16:09:56.107Z,8.60
2019-03-11T16:12:26.551Z,8.50
2019-03-11T16:14:57.004Z,8.50
2019-03-11T16:17:27.615Z,8.30
2019-03-11T16:19:58.349Z,8.40
2019-03-11T16:22:28.880Z,8.40
2019-03-11T16:24:59.337Z,8.30
2019-03-11T16:27:29.969Z,8.30
2019-03-11T16:30:00.444Z,8.30
2019-03-11T16:32:30.906Z,8.30
2019-03-11T16:35:01.555Z,8.30
2019-03-11T16:37:32.095Z,8.40
2019-03-11T16:40:02.716Z,8.30
2019-03-11T16:42:33.221Z,8.30
2019-03-11T16:45:04.404Z,8.20
2019-03-11T16:47:34.973Z,8.20
2019-03-11T16:50:06.442Z,8.20
2019-03-11T16:52:36.876Z,8.20
2019-03-11T16:55:08.163Z,8.10
2019-03-11T16:57:38.651Z,8.00
2019-03-11T17:00:15.883Z,7.90
2019-03-11T17:02:46.454Z,7.90
2019-03-11T17:05:16.917Z,7.80
2019-03-11T17:07:47.384Z,7.70
2019-03-11T17:10:18.161Z,7.70
2019-03-11T17:12:48.633Z,7.70
2019-03-11T17:15:19.099Z,7.50
2019-03-11T17:17:49.646Z,7.50
2019-03-11T17:20:22.137Z,7.50
2019-03-11T17:22:52.880Z,7.50
2019-03-11T17:25:23.474Z,7.40
2019-03-11T17:27:54.062Z,7.50
2019-03-11T17:30:24.722Z,7.40
2019-03-11T17:32:55.776Z,7.40
2019-03-11T17:35:26.236Z,7.40
2019-03-11T17:37:56.870Z,7.20
2019-03-11T17:40:27.625Z,7.20
2019-03-11T17:42:58.233Z,7.10
2019-03-11T17:45:28.727Z,7.10
2019-03-11T17:47:59.221Z,7.00
2019-03-11T17:50:29.750Z,7.00
2019-03-11T17:53:00.345Z,6.90
2019-03-11T17:55:30.954Z,6.90
2019-03-11T17:58:01.483Z,6.90
2019-03-11T18:00:32.963Z,7.00
2019-03-11T18:03:03.558Z,7.00
2019-03-11T18:05:34.152Z,6.90
2019-03-11T18:08:04.793Z,6.80
2019-03-11T18:10:35.256Z,6.80
2019-03-11T18:13:05.716Z,6.70
2019-03-11T18:15:36.176Z,6.70
2019-03-11T18:18:06.768Z,6.70
2019-03-11T18:20:37.267Z,6.60
2019-03-11T18:23:07.828Z,6.70
2019-03-11T18:25:38.278Z,6.70
2019-03-11T18:28:08.943Z,6.70
2019-03-11T18:30:39.618Z,6.70
2019-03-11T18:33:10.482Z,6.80
2019-03-11T18:35:41.184Z,6.70
2019-03-11T18:38:11.651Z,6.70
2019-03-11T18:40:42.156Z,6.60
2019-03-11T18:43:20.574Z,6.60
2019-03-11T18:45:44.887Z,6.60
2019-03-11T18:48:15.488Z,6.60
2019-03-11T18:50:46.132Z,6.60
2019-03-11T18:53:19.342Z,6.40
2019-03-11T18:55:48.986Z,6.40
2019-03-11T18:58:19.555Z,6.40
2019-03-11T19:00:50.584Z,6.30
2019-03-11T19:03:21.087Z,6.30
2019-03-11T19:05:51.775Z,6.30
2019-03-11T19:08:22.464Z,6.40
2019-03-11T19:10:53.008Z,6.40
2019-03-11T19:13:23.583Z,6.30
2019-03-11T19:15:54.234Z,6.30
2019-03-11T19:18:24.766Z,6.30
2019-03-11T19:20:55.645Z,6.30
2019-03-11T19:23:26.245Z,6.30
2019-03-11T19:25:57.126Z,6.30
2019-03-11T19:28:27.779Z,6.30
2019-03-11T19:30:58.505Z,6.30
2019-03-11T19:33:29.291Z,6.30
2019-03-11T19:36:01.821Z,6.30
2019-03-11T19:38:32.501Z,6.20
2019-03-11T19:41:03.183Z,6.10
2019-03-11T19:43:33.672Z,6.10
2019-03-11T19:46:04.128Z,6.10
2019-03-11T19:48:34.729Z,6.10
2019-03-11T19:51:05.815Z,6.10
2019-03-11T19:53:36.458Z,6.10
2019-03-11T19:56:07.127Z,6.10
2019-03-11T19:58:37.593Z,6.00
2019-03-11T20:01:08.635Z,6.10
2019-03-11T20:03:39.174Z,6.00
2019-03-11T20:06:09.921Z,6.00
2019-03-11T20:08:40.578Z,5.90
2019-03-11T20:11:11.496Z,5.90
2019-03-11T20:13:42.287Z,6.00
2019-03-11T20:16:13.198Z,6.00
2019-03-11T20:18:44.042Z,6.00
2019-03-11T20:21:14.659Z,5.90
2019-03-11T20:23:45.108Z,5.90
2019-03-11T20:26:18.375Z,5.80
2019-03-11T20:28:48.129Z,5.80
2019-03-11T20:31:18.837Z,5.80
2019-03-11T20:33:49.560Z,5.80
2019-03-11T20:36:21.433Z,5.70
2019-03-11T20:38:52.355Z,5.80
2019-03-11T20:41:22.854Z,5.80
2019-03-11T20:43:53.711Z,5.80
2019-03-11T20:46:24.493Z,5.80
2019-03-11T20:48:54.955Z,5.80
2019-03-11T20:51:25.458Z,5.80
2019-03-11T20:53:56.073Z,5.70
2019-03-11T20:56:26.774Z,5.70
2019-03-11T20:58:57.298Z,5.80
2019-03-11T21:01:28.221Z,5.80
2019-03-11T21:03:58.727Z,5.80
2019-03-11T21:06:29.237Z,5.80
2019-03-11T21:08:59.725Z,5.80
2019-03-11T21:11:30.459Z,5.70
2019-03-11T21:14:00.971Z,5.70
2019-03-11T21:16:31.606Z,5.70
2019-03-11T21:19:02.125Z,5.70
2019-03-11T21:21:33.027Z,5.70
2019-03-11T21:24:03.514Z,5.70
2019-03-11T21:26:34.278Z,5.60
2019-03-11T21:29:04.892Z,5.70
2019-03-11T21:31:35.581Z,5.60
2019-03-11T21:34:09.458Z,5.60
2019-03-11T21:36:38.407Z,5.60
2019-03-11T21:39:10.893Z,5.60
2019-03-11T21:41:41.835Z,5.50
2019-03-11T21:44:12.438Z,5.40
2019-03-11T21:46:43.161Z,5.40
2019-03-11T21:49:14.411Z,5.40
2019-03-11T21:51:45.204Z,5.40
2019-03-11T21:54:16.043Z,5.30
2019-03-11T21:56:46.485Z,5.30
2019-03-11T21:59:17.275Z,5.30
2019-03-11T22:01:47.776Z,5.30
2019-03-11T22:04:18.695Z,5.30
2019-03-11T22:06:49.206Z,5.40
2019-03-11T22:09:19.698Z,5.30
2019-03-11T22:11:50.202Z,5.30
2019-03-11T22:14:20.724Z,5.30
2019-03-11T22:16:51.231Z,5.30
2019-03-11T22:19:24.081Z,5.30
2019-03-11T22:21:54.572Z,5.30
2019-03-11T22:24:25.295Z,5.30
2019-03-11T22:26:55.768Z,5.30
2019-03-11T22:29:26.257Z,5.30
2019-03-11T22:31:56.963Z,5.30
2019-03-11T22:34:27.586Z,5.20
2019-03-11T22:36:58.134Z,5.20
2019-03-11T22:39:28.621Z,5.20
2019-03-11T22:41:59.063Z,5.10
2019-03-11T22:44:29.637Z,5.10
2019-03-11T22:47:00.154Z,5.10
2019-03-11T22:49:30.942Z,5.10
2019-03-11T22:52:01.511Z,5.00
2019-03-11T22:54:32.196Z,5.00
2019-03-11T22:57:02.654Z,5.10
2019-03-11T22:59:33.062Z,5.10
2019-03-11T23:02:03.977Z,5.00
2019-03-11T23:04:34.432Z,5.00
2019-03-11T23:07:04.909Z,5.00
2019-03-11T23:09:35.532Z,5.00
2019-03-11T23:12:06.013Z,5.10
2019-03-11T23:14:36.471Z,5.10
2019-03-11T23:17:07.036Z,5.00
2019-03-11T23:19:37.466Z,5.00
2019-03-11T23:22:07.984Z,5.00
2019-03-11T23:24:39.002Z,5.00
2019-03-11T23:27:09.412Z,5.00
2019-03-11T23:29:39.922Z,5.10
2019-03-11T23:32:10.326Z,5.10
2019-03-11T23:34:40.812Z,5.10
2019-03-11T23:37:11.248Z,5.10
2019-03-11T23:39:41.674Z,5.10
2019-03-11T23:42:12.438Z,5.10
2019-03-11T23:44:42.895Z,5.10
2019-03-11T23:47:13.403Z,5.00
2019-03-11T23:49:43.817Z,5.00
2019-03-11T23:52:14.290Z,5.00
2019-03-11T23:54:44.846Z,5.00
2019-03-11T23:57:15.258Z,4.90
2019-03-11T23:59:46.047Z,4.80
